Time;durP1;ratioP1;P1;durP2;ratioP2;P2;SDS_P1;SDS_P2;PMS_P1;PMS_P2;Temp;Humidity;BMP_temperature;BMP_pressure;BME280_temperature;BME280_humidity;BME280_pressure;Samples;Min_cycle;Max_cycle;Signal;HPM_P1;HPM_P2
2024/03/10 00:00:20;;;;;;;0.32;0.32;;;;;;;8.23;87.65;97245.53;5064656;28;20055;-66
2024/03/10 00:02:48;;;;;;;0.40;0.40;;;;;;;7.69;87.77;97171.44;5064455;28;21178;-66
2024/03/10 00:05:15;;;;;;;0.50;0.50;;;;;;;7.92;88.27;97195.72;5064339;28;20052;-66
2024/03/10 00:07:44;;;;;;;0.40;0.40;;;;;;;8.33;88.63;97267.91;5064217;28;20044;-66
2024/03/10 00:10:14;;;;;;;0.40;0.40;;;;;;;8.40;87.81;97273.66;5062278;28;20534;-66
2024/03/10 00:12:46;;;;;;;0.40;0.40;;;;;;;8.41;87.41;97280.00;5064379;28;20048;-66
2024/03/10 00:15:12;;;;;;;0.40;0.40;;;;;;;8.35;87.74;97262.84;5063394;28;20131;-66
2024/03/10 00:17:39;;;;;;;0.50;0.50;;;;;;;8.30;87.82;97257.56;5063929;28;20048;-66
2024/03/10 00:20:08;;;;;;;0.40;0.40;;;;;;;7.61;88.19;97146.75;5063484;28;20642;-66
2024/03/10 00:22:42;;;;;;;0.40;0.40;;;;;;;8.37;87.84;97257.00;5063827;28;20048;-66
2024/03/10 00:25:15;;;;;;;0.40;0.40;;;;;;;8.47;86.49;97257.28;5063315;28;20561;-65
2024/03/10 00:27:42;;;;;;;0.50;0.50;;;;;;;8.45;86.04;97256.03;5063552;28;20551;-66
2024/03/10 00:30:09;;;;;;;0.40;0.40;;;;;;;8.34;86.87;97241.13;5061641;28;20049;-66
2024/03/10 00:32:36;;;;;;;0.40;0.40;;;;;;;8.42;86.90;97240.19;5062573;28;20129;-66
2024/03/10 00:35:11;;;;;;;0.40;0.40;;;;;;;7.61;86.29;97108.16;5064361;28;20562;-65
2024/03/10 00:37:38;;;;;;;0.40;0.40;;;;;;;7.99;86.75;97224.31;5035289;28;20066;-68
2024/03/10 00:40:07;;;;;;;0.40;0.40;;;;;;;8.30;87.30;97245.75;5063548;28;20048;-66
2024/03/10 00:42:34;;;;;;;0.40;0.40;;;;;;;8.39;87.16;97238.94;5061690;28;20048;-65
2024/03/10 00:45:01;;;;;;;0.40;0.40;;;;;;;8.36;87.54;97233.31;5063064;28;20048;-67
2024/03/10 00:47:28;;;;;;;0.40;0.40;;;;;;;8.35;88.26;97220.66;5063150;28;20498;-66
2024/03/10 00:49:55;;;;;;;0.40;0.40;;;;;;;8.41;87.53;97219.25;5061707;28;20542;-65
2024/03/10 00:52:22;;;;;;;0.40;0.40;;;;;;;8.25;87.74;97237.72;5063358;28;20053;-66
2024/03/10 00:54:49;;;;;;;0.40;0.40;;;;;;;8.13;88.98;97212.88;5063392;28;20131;-65
2024/03/10 00:57:16;;;;;;;0.40;0.40;;;;;;;8.12;89.67;97230.59;5063099;28;20094;-66
2024/03/10 00:59:42;;;;;;;0.45;0.45;;;;;;;8.01;89.65;97223.97;5062989;28;20056;-65
2024/03/10 01:02:10;;;;;;;0.40;0.40;;;;;;;7.19;94.21;97179.31;5048602;28;20060;-67
2024/03/10 01:04:38;;;;;;;0.40;0.40;;;;;;;7.86;93.28;97235.72;5062570;28;20511;-66
2024/03/10 01:07:05;;;;;;;0.40;0.40;;;;;;;7.83;92.60;97225.38;5062972;28;20128;-67
2024/03/10 01:09:31;;;;;;;0.40;0.40;;;;;;;7.90;92.91;97222.84;5062550;28;20533;-67
2024/03/10 01:11:59;;;;;;;0.40;0.40;;;;;;;7.76;92.27;97222.44;5063738;28;20048;-65
2024/03/10 01:14:26;;;;;;;0.40;0.40;;;;;;;6.91;96.56;97163.81;5062896;28;20053;-66
2024/03/10 01:16:53;;;;;;;0.40;0.40;;;;;;;7.40;95.61;97173.66;5061684;28;20071;-66
2024/03/10 01:19:20;;;;;;;0.40;0.40;;;;;;;7.12;93.94;97110.22;5061345;28;20079;-66
2024/03/10 01:21:47;;;;;;;0.50;0.50;;;;;;;7.50;93.87;97179.50;5063002;28;20079;-66
2024/03/10 01:24:14;;;;;;;0.40;0.40;;;;;;;7.38;93.79;97137.41;5059357;28;20045;-65
2024/03/10 01:26:41;;;;;;;0.40;0.40;;;;;;;7.77;93.58;97182.66;5042237;28;20539;-65
2024/03/10 01:29:08;;;;;;;0.40;0.40;;;;;;;7.59;92.51;97182.94;5041870;28;20068;-65
2024/03/10 01:31:35;;;;;;;0.40;0.40;;;;;;;7.66;90.77;97161.13;5042909;28;20408;-65
2024/03/10 01:34:02;;;;;;;0.40;0.40;;;;;;;8.07;91.20;97208.78;5042835;28;20346;-65
2024/03/10 01:36:29;;;;;;;0.45;0.45;;;;;;;8.04;90.96;97209.47;5044068;28;20053;-65
2024/03/10 01:38:56;;;;;;;0.40;0.40;;;;;;;7.62;91.16;97132.63;5063014;28;20052;-65
2024/03/10 01:41:25;;;;;;;0.40;0.40;;;;;;;8.09;90.08;97187.16;5061001;28;20068;-65
2024/03/10 01:43:52;;;;;;;0.50;0.50;;;;;;;7.56;89.57;97117.47;5061002;28;20052;-65
2024/03/10 01:46:21;;;;;;;0.43;0.43;;;;;;;8.08;89.30;97208.41;5063083;28;20048;-66
2024/03/10 01:48:49;;;;;;;0.40;0.40;;;;;;;7.60;88.97;97117.59;5062632;28;20106;-66
2024/03/10 01:51:17;;;;;;;0.40;0.40;;;;;;;8.02;89.83;97189.69;5062852;28;20052;-66
2024/03/10 01:53:45;;;;;;;0.40;0.40;;;;;;;5.96;89.31;96849.88;5062658;28;20326;-65
2024/03/10 01:56:13;;;;;;;0.40;0.40;;;;;;;8.17;88.82;97211.03;5062147;28;20087;-65
2024/03/10 01:58:44;;;;;;;0.40;0.40;;;;;;;7.21;88.72;97066.00;5061840;28;20129;-65
2024/03/10 02:01:14;;;;;;;0.50;0.50;;;;;;;8.18;88.60;97198.84;5062040;28;20055;-66
2024/03/10 02:03:45;;;;;;;0.40;0.40;;;;;;;8.11;88.57;97209.69;5062323;28;20491;-65
2024/03/10 02:06:12;;;;;;;0.40;0.40;;;;;;;8.12;87.83;97200.25;5061695;28;20525;-66
2024/03/10 02:08:41;;;;;;;0.40;0.40;;;;;;;8.05;88.82;97194.53;5062004;28;20060;-67
2024/03/10 02:11:10;;;;;;;0.40;0.40;;;;;;;7.74;88.79;97160.13;5060363;28;20566;-66
2024/03/10 02:13:37;;;;;;;0.40;0.40;;;;;;;7.96;87.79;97174.56;5062381;28;20063;-65
2024/03/10 02:16:11;;;;;;;0.40;0.40;;;;;;;7.94;88.81;97204.44;5061976;28;20597;-66
2024/03/10 02:18:38;;;;;;;0.40;0.40;;;;;;;7.81;89.86;97211.94;5062084;28;20143;-65
2024/03/10 02:21:11;;;;;;;0.40;0.40;;;;;;;7.49;90.59;97161.34;5061682;28;20604;-66
2024/03/10 02:23:41;;;;;;;0.40;0.40;;;;;;;7.92;89.93;97209.53;5061995;28;20518;-66
2024/03/10 02:26:09;;;;;;;0.40;0.40;;;;;;;7.95;89.36;97206.84;5061021;28;20127;-68
2024/03/10 02:28:46;;;;;;;0.40;0.40;;;;;;;7.85;90.13;97212.06;5062451;28;20060;-66
2024/03/10 02:47:46;;;;;;;0.40;0.40;;;;;;;7.89;91.17;97207.47;5065683;28;20893;-66
2024/03/10 02:50:13;;;;;;;0.40;0.40;;;;;;;7.53;91.50;97164.22;5064984;28;20051;-66
2024/03/10 02:52:40;;;;;;;0.40;0.40;;;;;;;8.05;89.41;97200.03;5065487;28;20049;-66
2024/03/10 02:55:08;;;;;;;0.40;0.40;;;;;;;6.24;90.04;96955.25;5065746;28;20049;-66
2024/03/10 02:57:35;;;;;;;0.40;0.40;;;;;;;7.55;90.24;97129.66;5064085;28;20048;-66
2024/03/10 03:00:02;;;;;;;0.40;0.40;;;;;;;8.02;90.40;97190.53;5066255;28;20262;-66
2024/03/10 03:02:29;;;;;;;0.40;0.40;;;;;;;8.05;90.76;97183.47;5064211;28;20060;-66
2024/03/10 03:04:56;;;;;;;0.40;0.40;;;;;;;7.68;90.57;97131.22;5065508;28;20121;-67
2024/03/10 03:07:23;;;;;;;0.40;0.40;;;;;;;7.72;90.32;97123.88;5065058;28;20052;-67
2024/03/10 03:09:50;;;;;;;0.40;0.40;;;;;;;7.69;90.32;97127.31;5065463;28;20407;-66
2024/03/10 03:12:17;;;;;;;0.40;0.40;;;;;;;8.17;90.33;97202.78;5064789;28;20148;-66
2024/03/10 03:14:44;;;;;;;0.40;0.40;;;;;;;7.93;90.85;97165.03;5063538;28;20137;-66
2024/03/10 03:17:10;;;;;;;0.40;0.40;;;;;;;8.19;90.29;97197.72;5064950;28;20055;-66
2024/03/10 03:19:38;;;;;;;0.40;0.40;;;;;;;7.46;90.22;97104.19;5065223;28;20071;-66
2024/03/10 03:22:04;;;;;;;0.40;0.40;;;;;;;8.07;90.49;97192.22;5064796;28;20060;-66
2024/03/10 03:24:31;;;;;;;0.40;0.40;;;;;;;8.11;90.18;97191.16;5063363;28;20459;-66
2024/03/10 03:26:58;;;;;;;0.40;0.40;;;;;;;7.53;90.30;97109.91;5064968;28;20052;-67
2024/03/10 03:29:25;;;;;;;0.40;0.40;;;;;;;7.95;89.96;97168.22;5064764;28;20086;-68
2024/03/10 03:31:52;;;;;;;0.40;0.40;;;;;;;6.09;89.82;96859.69;5065004;28;20378;-66
2024/03/10 03:34:19;;;;;;;0.40;0.40;;;;;;;8.14;90.27;97176.66;5064727;28;20056;-66
2024/03/10 03:36:46;;;;;;;0.40;0.40;;;;;;;8.06;90.22;97147.28;5064624;28;20049;-65
2024/03/10 03:39:13;;;;;;;0.40;0.40;;;;;;;8.17;90.04;97175.19;5064702;28;20124;-66
2024/03/10 03:41:40;;;;;;;0.40;0.40;;;;;;;8.17;90.24;97180.69;5064274;28;20091;-66
2024/03/10 03:44:07;;;;;;;0.40;0.40;;;;;;;8.13;89.99;97180.59;5062963;28;20326;-68
2024/03/10 03:46:34;;;;;;;0.50;0.50;;;;;;;7.54;90.09;97091.41;5065107;28;20091;-66
2024/03/10 03:49:00;;;;;;;0.40;0.40;;;;;;;8.09;90.43;97178.88;5063381;28;20549;-66
2024/03/10 03:51:27;;;;;;;0.40;0.40;;;;;;;8.14;91.14;97176.66;5064360;28;20110;-66
2024/03/10 03:53:54;;;;;;;0.40;0.40;;;;;;;8.06;91.20;97168.56;5064775;28;20048;-67
2024/03/10 03:56:21;;;;;;;0.40;0.40;;;;;;;8.06;91.11;97174.06;5064177;28;20159;-66
2024/03/10 03:58:49;;;;;;;0.40;0.40;;;;;;;8.04;91.65;97226.03;5063904;28;20164;-66
2024/03/10 04:01:17;;;;;;;0.40;0.40;;;;;;;7.62;91.62;97109.75;5064477;28;20138;-67
2024/03/10 04:03:44;;;;;;;0.40;0.40;;;;;;;8.14;91.45;97189.69;5052610;28;20071;-66
2024/03/10 04:06:11;;;;;;;0.40;0.40;;;;;;;8.16;91.53;97179.06;5064184;28;20055;-67
2024/03/10 04:08:38;;;;;;;0.45;0.45;;;;;;;8.03;91.15;97152.72;5062546;28;20053;-66
2024/03/10 04:11:04;;;;;;;0.50;0.50;;;;;;;8.08;91.65;97178.06;5062651;28;20044;-67
2024/03/10 04:13:31;;;;;;;0.40;0.40;;;;;;;8.11;91.59;97176.59;5062536;28;20052;-65
2024/03/10 04:15:58;;;;;;;0.40;0.40;;;;;;;8.10;92.02;97177.72;5063855;28;20110;-65
2024/03/10 04:18:26;;;;;;;0.40;0.40;;;;;;;7.60;91.81;97110.09;5063606;28;20048;-67
2024/03/10 04:20:53;;;;;;;0.40;0.40;;;;;;;8.05;91.50;97172.44;5063613;28;20052;-65
2024/03/10 04:23:19;;;;;;;0.40;0.40;;;;;;;7.69;91.91;97132.84;5063339;28;20057;-65
2024/03/10 04:25:46;;;;;;;0.30;0.30;;;;;;;8.01;90.85;97185.34;5063871;28;20060;-66
2024/03/10 04:28:13;;;;;;;0.40;0.40;;;;;;;7.93;90.56;97175.25;5062094;28;20048;-67
2024/03/10 04:30:41;;;;;;;0.40;0.40;;;;;;;7.83;91.26;97164.72;5063797;28;20393;-65
2024/03/10 04:33:08;;;;;;;0.40;0.40;;;;;;;7.85;91.42;97167.94;5062421;28;20048;-66
2024/03/10 04:35:37;;;;;;;0.40;0.40;;;;;;;7.15;91.71;97062.72;5063456;28;20053;-66
2024/03/10 04:38:04;;;;;;;0.40;0.40;;;;;;;7.76;91.17;97145.22;5062120;28;20084;-66
2024/03/10 04:40:32;;;;;;;0.32;0.32;;;;;;;7.43;91.47;97118.66;5063167;28;20201;-65
2024/03/10 04:42:59;;;;;;;0.40;0.40;;;;;;;7.63;92.18;97167.28;5063432;28;20508;-65
2024/03/10 04:45:27;;;;;;;0.40;0.40;;;;;;;7.53;92.97;97151.25;5061579;28;20052;-64
2024/03/10 04:47:54;;;;;;;0.40;0.40;;;;;;;7.56;92.52;97183.63;5063581;28;20060;-65
2024/03/10 04:50:21;;;;;;;0.40;0.40;;;;;;;7.59;92.27;97199.47;5061632;28;20053;-65
2024/03/10 04:52:48;;;;;;;0.40;0.40;;;;;;;7.61;92.50;97186.16;5063412;28;20052;-66
2024/03/10 04:55:15;;;;;;;0.40;0.40;;;;;;;7.66;92.90;97177.66;5062909;28;20072;-66
2024/03/10 04:57:41;;;;;;;0.38;0.38;;;;;;;7.68;92.87;97191.88;5062776;28;20052;-66
2024/03/10 05:00:12;;;;;;;0.50;0.50;;;;;;;7.77;91.78;97193.69;5061285;28;20048;-66
2024/03/10 05:02:39;;;;;;;0.40;0.40;;;;;;;7.54;92.27;97174.91;5063187;28;20052;-69
2024/03/10 05:05:07;;;;;;;0.40;0.40;;;;;;;7.70;92.37;97189.56;5061165;28;20119;-66
2024/03/10 05:07:36;;;;;;;0.40;0.40;;;;;;;7.08;92.99;97098.28;5063812;28;20059;-66
2024/03/10 05:10:03;;;;;;;0.40;0.40;;;;;;;6.95;97.38;97171.06;5061632;28;20059;-65
2024/03/10 05:12:30;;;;;;;0.32;0.32;;;;;;;6.83;99.46;97201.31;5061392;28;20143;-66
2024/03/10 05:14:57;;;;;;;0.38;0.38;;;;;;;6.91;100.00;97134.34;5061646;28;20616;-65
2024/03/10 05:17:24;;;;;;;0.40;0.40;;;;;;;7.32;97.85;97169.06;5061324;28;20044;-67
2024/03/10 05:19:51;;;;;;;0.40;0.40;;;;;;;5.58;95.85;96861.19;5062863;28;20545;-66
2024/03/10 05:22:18;;;;;;;0.40;0.40;;;;;;;7.70;95.20;97199.78;5062702;28;20124;-67
2024/03/10 05:24:45;;;;;;;0.40;0.40;;;;;;;7.26;97.12;97201.56;5062775;28;20579;-66
2024/03/10 05:27:11;;;;;;;0.40;0.40;;;;;;;6.97;99.26;97199.03;5062264;28;20502;-66
2024/03/10 05:29:38;;;;;;;0.40;0.40;;;;;;;7.25;100.00;97182.63;5060693;28;20045;-66
2024/03/10 05:32:05;;;;;;;0.40;0.40;;;;;;;7.07;98.06;97110.47;5062427;28;20052;-66
2024/03/10 05:34:35;;;;;;;0.40;0.40;;;;;;;7.70;97.06;97200.59;5062628;28;20568;-66
2024/03/10 05:37:05;;;;;;;0.40;0.40;;;;;;;7.87;96.87;97199.53;5062409;28;20040;-67
2024/03/10 05:39:32;;;;;;;0.40;0.40;;;;;;;8.10;94.16;97202.56;5062929;28;20049;-67
2024/03/10 05:41:59;;;;;;;0.40;0.40;;;;;;;8.23;92.41;97195.88;5062807;28;20048;-66
2024/03/10 05:44:26;;;;;;;0.40;0.40;;;;;;;7.90;91.23;97140.13;5062635;28;20474;-67
2024/03/10 05:46:58;;;;;;;0.40;0.40;;;;;;;8.35;91.36;97199.38;5062538;28;20053;-67
2024/03/10 05:49:28;;;;;;;0.40;0.40;;;;;;;8.40;90.53;97201.88;5061032;28;20247;-66
2024/03/10 05:51:55;;;;;;;0.40;0.40;;;;;;;8.51;91.22;97208.50;5062376;28;20056;-66
2024/03/10 05:54:21;;;;;;;0.40;0.40;;;;;;;8.63;91.04;97205.66;5062420;28;20056;-66
2024/03/10 05:56:49;;;;;;;0.50;0.50;;;;;;;8.89;89.18;97208.75;5062119;28;20049;-67
2024/03/10 05:59:16;;;;;;;0.40;0.40;;;;;;;9.02;87.61;97217.75;5061344;28;20451;-66
2024/03/10 06:01:45;;;;;;;0.40;0.40;;;;;;;9.18;86.37;97205.53;5061687;28;20098;-66
2024/03/10 06:04:12;;;;;;;0.40;0.40;;;;;;;9.16;85.10;97204.28;5061544;28;20056;-67
2024/03/10 06:06:39;;;;;;;0.40;0.40;;;;;;;8.58;84.55;97103.78;5061514;28;20053;-66
2024/03/10 06:09:07;;;;;;;0.40;0.40;;;;;;;9.37;84.33;97226.94;5061559;28;20819;-68
2024/03/10 06:11:34;;;;;;;0.40;0.40;;;;;;;9.38;83.50;97213.91;5061094;28;20469;-68
2024/03/10 06:14:01;;;;;;;0.50;0.50;;;;;;;8.90;82.93;97151.53;5061280;28;20054;-66
2024/03/10 06:16:29;;;;;;;0.50;0.50;;;;;;;9.20;82.75;97205.97;5064582;28;20125;-66
2024/03/10 06:27:00;;;;;;;0.43;0.43;;;;;;;9.34;83.25;97224.88;5065990;28;20052;-66
2024/03/10 06:29:27;;;;;;;0.50;0.50;;;;;;;9.38;83.00;97236.81;5064437;28;20511;-67
2024/03/10 06:31:55;;;;;;;0.50;0.50;;;;;;;9.51;82.84;97224.50;5066007;28;20048;-66
2024/03/10 06:34:23;;;;;;;0.50;0.50;;;;;;;9.88;82.47;97231.28;5066344;28;20045;-67
2024/03/10 06:36:50;;;;;;;0.50;0.50;;;;;;;10.38;82.88;97236.78;5065885;28;20056;-67
2024/03/10 06:39:20;;;;;;;0.50;0.50;;;;;;;10.28;77.73;97186.72;5065017;28;20049;-68
2024/03/10 06:41:47;;;;;;;0.50;0.50;;;;;;;10.60;77.71;97233.28;5063894;28;20299;-66
2024/03/10 06:44:15;;;;;;;0.50;0.50;;;;;;;10.34;76.23;97185.25;5063372;28;20530;-66
2024/03/10 06:46:42;;;;;;;0.50;0.50;;;;;;;10.95;77.00;97226.78;5065597;28;20056;-66
2024/03/10 06:49:09;;;;;;;0.50;0.50;;;;;;;10.94;74.78;97208.56;5065300;28;20231;-66
2024/03/10 06:51:36;;;;;;;0.50;0.50;;;;;;;10.90;69.58;97202.16;5065292;28;20091;-66
2024/03/10 06:54:03;;;;;;;0.50;0.50;;;;;;;10.68;70.45;97218.38;5064522;28;20052;-67
2024/03/10 06:56:31;;;;;;;0.50;0.50;;;;;;;10.19;71.67;97195.25;5065000;28;20055;-66
2024/03/10 06:58:58;;;;;;;0.50;0.50;;;;;;;10.73;72.41;97270.72;5065551;28;20434;-66
2024/03/10 07:01:25;;;;;;;0.50;0.50;;;;;;;11.34;70.71;97261.56;5065060;28;20154;-66
2024/03/10 07:03:52;;;;;;;0.50;0.50;;;;;;;11.73;69.31;97263.03;5064824;28;20088;-66
2024/03/10 07:06:21;;;;;;;0.50;0.50;;;;;;;11.89;67.26;97249.81;5064946;28;20059;-66
2024/03/10 07:08:49;;;;;;;0.50;0.50;;;;;;;11.57;65.16;97237.41;5065132;28;20048;-68
2024/03/10 07:11:16;;;;;;;0.57;0.57;;;;;;;11.83;65.42;97267.97;5065237;28;20080;-67
2024/03/10 07:13:43;;;;;;;0.50;0.50;;;;;;;11.89;65.30;97266.47;5063458;28;20533;-66
2024/03/10 07:16:10;;;;;;;0.50;0.50;;;;;;;11.55;65.10;97303.53;5065329;28;20052;-66
2024/03/10 07:18:37;;;;;;;0.50;0.50;;;;;;;11.34;66.05;97212.44;5064749;28;20151;-67
2024/03/10 07:21:05;;;;;;;0.50;0.50;;;;;;;10.93;65.35;97218.03;5063223;28;20083;-67
2024/03/10 07:23:32;;;;;;;0.50;0.50;;;;;;;10.73;65.97;97215.31;5064636;28;20056;-67
2024/03/10 07:26:00;;;;;;;0.50;0.50;;;;;;;11.35;65.02;97268.72;5064753;28;20526;-66
2024/03/10 07:28:27;;;;;;;0.50;0.50;;;;;;;10.43;66.74;97280.00;5064547;28;20113;-66
2024/03/10 07:30:54;;;;;;;0.50;0.50;;;;;;;10.64;67.30;97270.16;5064846;28;20139;-66
2024/03/10 07:33:21;;;;;;;0.50;0.50;;;;;;;11.11;66.61;97264.31;5063169;28;20251;-66
2024/03/10 07:35:48;;;;;;;0.50;0.50;;;;;;;11.26;66.32;97254.28;5064757;28;20044;-65
2024/03/10 07:38:15;;;;;;;0.50;0.50;;;;;;;11.36;64.94;97262.00;5064343;28;20110;-66
2024/03/10 07:40:43;;;;;;;0.50;0.50;;;;;;;10.95;67.84;97263.63;5064451;28;20052;-67
2024/03/10 07:43:17;;;;;;;0.50;0.50;;;;;;;11.03;66.54;97228.53;5064471;28;20531;-67
2024/03/10 07:45:44;;;;;;;0.55;0.55;;;;;;;11.01;67.27;97187.31;5064160;28;20721;-65
2024/03/10 07:48:12;;;;;;;0.50;0.50;;;;;;;11.63;66.78;97236.72;5063179;28;20049;-66
2024/03/10 07:50:39;;;;;;;0.50;0.50;;;;;;;12.02;66.22;97265.09;5064966;28;20059;-66
2024/03/10 07:53:05;;;;;;;0.50;0.50;;;;;;;12.10;65.03;97283.44;5063154;28;20049;-67
2024/03/10 07:55:32;;;;;;;0.60;0.60;;;;;;;12.53;64.42;97266.22;5064629;28;20048;-66
2024/03/10 07:57:59;;;;;;;0.60;0.60;;;;;;;12.24;62.99;97222.56;5062989;28;20056;-66
2024/03/10 08:00:26;;;;;;;0.55;0.55;;;;;;;12.42;62.64;97278.34;5064274;28;20150;-66
2024/03/10 08:02:53;;;;;;;0.50;0.50;;;;;;;12.64;62.69;97275.47;5064288;28;20052;-66
2024/03/10 08:05:21;;;;;;;0.50;0.50;;;;;;;12.83;63.11;97280.88;5063887;28;20163;-66
2024/03/10 08:07:49;;;;;;;0.60;0.60;;;;;;;12.86;61.40;97259.84;5063896;28;20059;-67
2024/03/10 08:10:18;;;;;;;0.60;0.60;;;;;;;12.60;61.94;97266.28;5063487;28;20052;-67
2024/03/10 08:12:46;;;;;;;0.50;0.50;;;;;;;11.57;63.06;97259.59;5063613;28;20136;-65
2024/03/10 08:15:14;;;;;;;0.60;0.60;;;;;;;11.36;64.95;97203.75;5063686;28;20049;-66
2024/03/10 08:17:43;;;;;;;0.50;0.50;;;;;;;12.06;62.78;97263.19;5063608;28;20060;-66
2024/03/10 08:20:14;;;;;;;0.50;0.50;;;;;;;11.09;64.36;97191.00;5062035;28;20606;-68
2024/03/10 08:22:42;;;;;;;0.60;0.60;;;;;;;11.32;64.12;97186.25;5063514;28;20049;-67
2024/03/10 08:25:10;;;;;;;0.50;0.50;;;;;;;12.10;62.80;97261.22;5061847;28;20109;-67
2024/03/10 08:27:38;;;;;;;0.50;0.50;;;;;;;12.55;61.83;97249.16;5062529;28;20060;-68
2024/03/10 08:30:09;;;;;;;0.50;0.50;;;;;;;12.95;60.24;97258.38;5063991;28;20513;-65
2024/03/10 08:32:37;;;;;;;0.57;0.57;;;;;;;12.29;59.55;97193.63;5064285;28;20076;-66
2024/03/10 08:35:07;;;;;;;0.60;0.60;;;;;;;12.57;60.54;97258.69;5063299;28;20141;-65
2024/03/10 08:37:42;;;;;;;0.50;0.50;;;;;;;12.88;59.79;97241.59;5057763;28;20052;-65
2024/03/10 08:40:12;;;;;;;0.52;0.52;;;;;;;12.90;59.14;97217.00;5042887;28;20045;-65
2024/03/10 08:42:42;;;;;;;0.60;0.60;;;;;;;13.45;57.97;97254.16;5043637;28;20052;-66
2024/03/10 08:45:10;;;;;;;0.60;0.60;;;;;;;13.18;57.26;97205.41;5042624;28;20056;-65
2024/03/10 08:47:41;;;;;;;0.60;0.60;;;;;;;13.67;57.00;97242.78;5043219;28;20049;-65
2024/03/10 08:50:10;;;;;;;0.60;0.60;;;;;;;14.04;56.22;97253.00;5041533;28;20601;-65
2024/03/10 08:52:38;;;;;;;0.63;0.63;;;;;;;13.50;56.89;97157.16;5043268;28;20056;-65
2024/03/10 08:55:07;;;;;;;0.70;0.70;;;;;;;14.24;55.35;97229.28;5042939;28;20084;-65
2024/03/10 08:57:35;;;;;;;0.70;0.70;;;;;;;14.67;54.60;97243.03;5041364;28;20148;-65
2024/03/10 09:00:04;;;;;;;0.70;0.70;;;;;;;14.83;54.64;97256.66;5042638;28;20048;-65
2024/03/10 09:02:31;;;;;;;0.60;0.60;;;;;;;14.71;53.87;97231.91;5042762;28;20106;-65
2024/03/10 09:04:59;;;;;;;0.60;0.60;;;;;;;14.77;53.22;97225.56;5042975;28;20226;-64
2024/03/10 09:07:28;;;;;;;0.63;0.63;;;;;;;14.71;53.20;97198.44;5041588;28;20045;-65
2024/03/10 09:09:55;;;;;;;0.68;0.68;;;;;;;14.89;53.28;97238.38;5043336;28;20056;-64
2024/03/10 09:12:21;;;;;;;0.63;0.63;;;;;;;14.94;54.11;97237.97;5043852;28;20067;-64
2024/03/10 09:14:48;;;;;;;0.60;0.60;;;;;;;12.80;53.46;96925.00;5043968;28;20053;-64
2024/03/10 09:17:17;;;;;;;0.70;0.70;;;;;;;14.97;53.08;97251.91;5042987;28;20072;-66
2024/03/10 09:19:45;;;;;;;0.60;0.60;;;;;;;14.76;52.51;97223.19;5042965;28;20517;-64
2024/03/10 09:22:13;;;;;;;0.60;0.60;;;;;;;14.11;52.99;97166.69;5041266;28;20178;-65
2024/03/10 09:24:42;;;;;;;0.70;0.70;;;;;;;14.72;53.35;97251.03;5042781;28;20143;-64
2024/03/10 09:27:09;;;;;;;0.70;0.70;;;;;;;14.46;53.61;97211.50;5042848;28;20044;-65
2024/03/10 09:29:37;;;;;;;0.70;0.70;;;;;;;14.74;54.07;97247.84;5040655;28;20502;-65
2024/03/10 09:32:06;;;;;;;0.70;0.70;;;;;;;14.66;54.39;97193.25;5042205;28;20063;-64
2024/03/10 09:34:36;;;;;;;0.70;0.70;;;;;;;14.82;53.95;97227.16;5040902;28;20064;-67
2024/03/10 09:37:06;;;;;;;0.63;0.63;;;;;;;14.25;54.52;97212.19;5045332;28;20431;-67
2024/03/10 09:39:34;;;;;;;0.70;0.70;;;;;;;14.24;56.18;97223.69;5062352;28;20135;-66
2024/03/10 09:42:04;;;;;;;0.70;0.70;;;;;;;14.08;54.87;97214.84;5062212;28;20098;-66
2024/03/10 09:44:33;;;;;;;0.60;0.60;;;;;;;14.20;55.56;97223.66;5062446;28;20063;-65
2024/03/10 09:47:01;;;;;;;0.60;0.60;;;;;;;14.45;56.04;97218.25;5061223;28;20121;-66
2024/03/10 09:49:28;;;;;;;0.60;0.60;;;;;;;14.45;54.73;97184.78;5062343;28;20109;-67
2024/03/10 09:51:56;;;;;;;0.63;0.63;;;;;;;14.10;55.82;97162.34;5062253;28;20060;-64
2024/03/10 09:54:25;;;;;;;0.65;0.65;;;;;;;14.80;54.43;97210.03;5060359;28;20075;-65
2024/03/10 09:56:52;;;;;;;0.70;0.70;;;;;;;14.96;54.88;97216.06;5062084;28;20049;-65
2024/03/10 09:59:28;;;;;;;0.70;0.70;;;;;;;14.98;53.53;97210.88;5060242;28;20061;-66
2024/03/10 10:02:00;;;;;;;0.70;0.70;;;;;;;14.40;53.85;97154.53;5044264;28;20367;-64
2024/03/10 10:04:35;;;;;;;0.60;0.60;;;;;;;13.20;55.89;97164.88;5056515;28;20064;-64
2024/03/10 10:07:07;;;;;;;0.60;0.60;;;;;;;13.44;57.16;97208.81;5041477;28;20490;-64
2024/03/10 10:09:36;;;;;;;0.70;0.70;;;;;;;13.17;58.19;97221.28;5040360;28;20559;-64
2024/03/10 10:12:03;;;;;;;0.60;0.60;;;;;;;13.86;58.22;97202.78;5041707;28;20075;-64
2024/03/10 10:14:30;;;;;;;0.65;0.65;;;;;;;14.40;56.93;97193.56;5041927;28;20496;-65
2024/03/10 10:16:59;;;;;;;0.60;0.60;;;;;;;14.59;54.81;97207.19;5040462;28;20052;-65
2024/03/10 10:19:27;;;;;;;0.60;0.60;;;;;;;14.70;55.56;97188.50;5040222;28;20538;-66
2024/03/10 10:21:54;;;;;;;0.70;0.70;;;;;;;14.70;54.68;97185.72;5041600;28;20443;-65
2024/03/10 10:24:21;;;;;;;0.70;0.70;;;;;;;14.56;54.72;97164.16;5041500;28;20124;-65
2024/03/10 10:26:58;;;;;;;0.70;0.70;;;;;;;14.61;54.43;97160.16;5041848;28;20423;-65
2024/03/10 10:29:25;;;;;;;0.60;0.60;;;;;;;14.31;54.60;97101.13;5042790;28;20053;-65
2024/03/10 10:31:59;;;;;;;0.70;0.70;;;;;;;14.45;54.97;97138.22;5042733;28;20167;-66
2024/03/10 10:34:27;;;;;;;0.60;0.60;;;;;;;14.66;54.91;97173.72;5042110;28;20298;-65
2024/03/10 10:36:55;;;;;;;0.68;0.68;;;;;;;14.58;54.47;97138.66;5041581;28;20056;-65
2024/03/10 10:39:26;;;;;;;0.70;0.70;;;;;;;14.97;54.74;97168.22;5041288;28;20511;-65
2024/03/10 10:41:57;;;;;;;0.65;0.65;;;;;;;14.89;55.23;97171.44;5041993;28;20041;-64
2024/03/10 10:44:28;;;;;;;0.60;0.60;;;;;;;14.92;54.32;97171.41;5041861;28;20057;-65
2024/03/10 10:46:58;;;;;;;0.68;0.68;;;;;;;14.59;55.53;97146.63;5040491;28;20055;-66
2024/03/10 10:49:25;;;;;;;0.70;0.70;;;;;;;14.68;54.59;97137.91;5040101;28;20049;-65
2024/03/10 10:51:56;;;;;;;0.68;0.68;;;;;;;14.55;54.33;97140.25;5041810;28;20041;-66
2024/03/10 10:54:25;;;;;;;0.68;0.68;;;;;;;14.73;54.87;97151.47;5040198;28;20473;-66
2024/03/10 10:56:56;;;;;;;0.60;0.60;;;;;;;13.33;58.45;97107.75;5040628;28;20117;-65
2024/03/10 10:59:24;;;;;;;0.60;0.60;;;;;;;12.76;59.63;97063.97;5055791;28;20060;-66
2024/03/10 11:02:09;;;;;;;0.60;0.60;;;;;;;13.49;60.19;97138.88;5042545;28;20118;-64
2024/03/10 11:04:37;;;;;;;0.68;0.68;;;;;;;12.52;59.19;97005.41;5044284;28;20056;-65
2024/03/10 11:07:05;;;;;;;0.60;0.60;;;;;;;13.39;58.39;97097.88;5044602;28;20049;-64
2024/03/10 11:09:32;;;;;;;0.70;0.70;;;;;;;14.17;58.10;97140.88;5045916;28;20049;-65
2024/03/10 11:12:16;;;;;;;0.70;0.70;;;;;;;14.72;56.79;97125.56;5046141;28;20596;-65
2024/03/10 11:14:44;;;;;;;0.65;0.65;;;;;;;15.20;55.97;97126.03;5045463;28;20191;-65
2024/03/10 11:17:16;;;;;;;0.70;0.70;;;;;;;15.39;55.83;97117.28;5044608;28;20304;-66
2024/03/10 11:19:48;;;;;;;0.70;0.70;;;;;;;15.60;55.47;97117.22;5045228;28;20057;-66
2024/03/10 11:22:27;;;;;;;0.80;0.80;;;;;;;15.03;55.08;96998.47;5045198;28;20128;-65
2024/03/10 11:25:08;;;;;;;0.65;0.65;;;;;;;15.48;54.87;97114.88;5043578;28;20187;-64
2024/03/10 11:27:44;;;;;;;0.70;0.70;;;;;;;15.77;54.64;97110.84;5044835;28;20049;-65
2024/03/10 11:30:45;;;;;;;0.60;0.60;;;;;;;14.94;55.52;97101.28;5044530;28;20056;-65
2024/03/10 11:33:13;;;;;;;0.70;0.70;;;;;;;14.73;56.83;97152.25;5043454;28;20064;-65
2024/03/10 11:35:40;;;;;;;0.70;0.70;;;;;;;15.08;56.49;97084.53;5044518;28;20106;-65
2024/03/10 11:38:09;;;;;;;0.60;0.60;;;;;;;14.67;55.73;97035.91;5055541;28;20045;-66
2024/03/10 11:40:36;;;;;;;0.70;0.70;;;;;;;14.81;57.86;97052.69;5062896;28;20056;-65
2024/03/10 11:43:03;;;;;;;0.68;0.68;;;;;;;15.55;55.96;97063.81;5063162;28;20064;-66
2024/03/10 11:45:34;;;;;;;0.70;0.70;;;;;;;15.31;55.17;97006.81;5063073;28;20572;-66
2024/03/10 11:48:01;;;;;;;0.60;0.60;;;;;;;14.98;55.40;97063.03;5064906;28;20053;-65
2024/03/10 11:50:29;;;;;;;0.70;0.70;;;;;;;15.12;55.19;97063.03;5064858;28;20101;-65
2024/03/10 11:52:57;;;;;;;0.70;0.70;;;;;;;15.09;55.35;97036.72;5065109;28;20056;-64
2024/03/10 11:55:24;;;;;;;0.70;0.70;;;;;;;15.38;55.05;97054.25;5063407;28;20056;-66
2024/03/10 11:57:53;;;;;;;0.70;0.70;;;;;;;15.50;54.94;97051.06;5062685;28;20052;-64
2024/03/10 12:00:23;;;;;;;0.70;0.70;;;;;;;15.26;54.42;96987.66;5063587;28;20080;-65
2024/03/10 12:02:54;;;;;;;0.70;0.70;;;;;;;15.79;53.51;97041.38;5062385;28;20048;-65
2024/03/10 12:05:22;;;;;;;0.60;0.60;;;;;;;15.91;53.33;97028.97;5063497;28;20060;-66